Overview Statistics Trail Chart Weather Telemetry Raw packets
 

This is the latest recevied weather packets stored in our database for station/object NK7E-2. If no packets are shown the sender has not sent any weather packets the latest 10 day(s).

<< 29 30 31 32 33 34 35 >>
Time Temp. Humidity Pressure Rain* Wind** Luminosity Snow
1788009017 25.56° C 47% 1028.3 hPa 0 mm - - -
1788008417 26.67° C 44% 1028 hPa 0 mm - - -
1788007817 27.22° C 42% 1027.8 hPa 0 mm - - -
1788007217 26.67° C 42% 1027.7 hPa 0 mm - - -
1788006617 27.22° C 43% 1027.8 hPa 0 mm - - -
1788006017 26.11° C 44% 1027.8 hPa 0 mm - - -
1788005418 26.11° C 45% 1027.6 hPa 0 mm - - -
1788004817 26.67° C 46% 1027.7 hPa 0 mm - - -
1788004217 26.67° C 46% 1027.6 hPa 0 mm - - -
1788003617 27.22° C 45% 1027.8 hPa 0 mm - - -
1788003017 27.78° C 43% 1027.8 hPa 0 mm - - -
1788002417 27.78° C 43% 1028.7 hPa 0 mm - - -
1788001817 27.78° C 43% 1028.8 hPa 0 mm - - -
1788001216 28.33° C 41% 1028.8 hPa 0 mm - - -
1788000617 28.89° C 38% 1028.7 hPa 0 mm - - -
1788000017 29.44° C 38% 1028.8 hPa 0 mm - - -
1787999416 29.44° C 38% 1028.8 hPa 0 mm - - -
1787998816 29.44° C 37% 1028.8 hPa 0 mm - - -
1787998219 29.44° C 39% 1028.8 hPa 0 mm - - -
1787997616 29.44° C 38% 1028.7 hPa 0 mm - - -
1787997016 29.44° C 39% 1028.7 hPa 0 mm - - -
1787996416 28.89° C 41% 1028.6 hPa 0 mm - - -
1787995816 28.89° C 43% 1027.6 hPa 0 mm - - -
1787995216 28.89° C 41% 1027.8 hPa 0 mm - - -
1787994616 28.89° C 39% 1027.7 hPa 0 mm - - -

* Rain latest hour (hover to see other rain measurements)
** Current wind speed in m/s (hover to see current wind gust speed)